createdAt,value
2018-08-13T00:00:21.946Z,0
2018-08-13T00:01:22.208Z,0
2018-08-13T00:02:22.196Z,0
2018-08-13T00:03:21.910Z,0
2018-08-13T00:04:22.429Z,0
2018-08-13T00:05:21.887Z,0
2018-08-13T00:06:21.616Z,0
2018-08-13T00:07:21.865Z,0
2018-08-13T00:08:22.116Z,0
2018-08-13T00:09:22.117Z,0
2018-08-13T00:10:21.843Z,0
2018-08-13T00:11:22.354Z,0
2018-08-13T00:12:21.822Z,0
2018-08-13T00:13:21.807Z,0
2018-08-13T00:14:22.331Z,0
2018-08-13T00:15:22.319Z,0
2018-08-13T00:16:22.038Z,0
2018-08-13T00:17:22.288Z,0
2018-08-13T00:18:21.750Z,0
2018-08-13T00:19:22.005Z,0
2018-08-13T00:20:21.736Z,0
2018-08-13T00:21:22.247Z,0
2018-08-13T00:22:22.236Z,0
2018-08-13T00:23:21.962Z,0
2018-08-13T00:24:21.691Z,0
2018-08-13T00:25:21.416Z,0
2018-08-13T00:26:21.670Z,0
2018-08-13T00:27:21.657Z,0
2018-08-13T00:28:22.176Z,0
2018-08-13T00:29:21.631Z,0
2018-08-13T00:30:21.889Z,0
2018-08-13T00:31:21.878Z,0
2018-08-13T00:32:21.865Z,0
2018-08-13T00:33:21.330Z,0
2018-08-13T00:34:21.313Z,0
2018-08-13T00:35:21.308Z,0
2018-08-13T00:36:21.564Z,0
2018-08-13T00:37:21.548Z,0
2018-08-13T00:38:22.066Z,0
2018-08-13T00:39:22.001Z,0
2018-08-13T00:40:21.780Z,0
2018-08-13T00:41:21.772Z,0
2018-08-13T00:42:22.023Z,0
2018-08-13T00:43:21.753Z,0
2018-08-13T00:44:21.471Z,0
2018-08-13T00:45:21.457Z,0
2018-08-13T00:46:21.709Z,0
2018-08-13T00:47:21.447Z,0
2018-08-13T00:48:21.700Z,0
2018-08-13T00:49:21.153Z,0
2018-08-13T00:50:21.421Z,0
2018-08-13T00:51:21.929Z,0
2018-08-13T00:52:21.918Z,0
2018-08-13T00:53:21.374Z,0
2018-08-13T00:54:21.632Z,0
2018-08-13T00:55:21.897Z,0
2018-08-13T00:56:21.342Z,0
2018-08-13T00:57:21.865Z,0
2018-08-13T00:58:21.589Z,0
2018-08-13T00:59:21.626Z,0
2018-08-13T01:00:21.301Z,0
2018-08-13T01:01:21.820Z,0
2018-08-13T01:02:21.293Z,0
2018-08-13T01:03:21.843Z,0
2018-08-13T01:04:21.526Z,0
2018-08-13T01:05:20.986Z,0
2018-08-13T01:06:21.502Z,0
2018-08-13T01:07:21.227Z,0
2018-08-13T01:08:21.792Z,0
2018-08-13T01:09:21.740Z,0
2018-08-13T01:10:20.933Z,0
2018-08-13T01:11:21.451Z,0
2018-08-13T01:12:21.693Z,0
2018-08-13T01:13:21.431Z,0
2018-08-13T01:14:21.145Z,0
2018-08-13T01:15:21.408Z,0
2018-08-13T01:16:21.660Z,0
2018-08-13T01:17:21.382Z,0
2018-08-13T01:18:21.371Z,0
2018-08-13T01:19:21.105Z,0
2018-08-13T01:20:21.641Z,0
2018-08-13T01:21:21.345Z,0
2018-08-13T01:22:21.601Z,0
2018-08-13T01:23:21.321Z,0
2018-08-13T01:24:21.318Z,0
2018-08-13T01:25:21.572Z,0
2018-08-13T01:26:21.559Z,0
2018-08-13T01:27:21.014Z,0
2018-08-13T01:28:21.265Z,0
2018-08-13T01:29:21.260Z,0
2018-08-13T01:30:21.250Z,0
2018-08-13T01:31:20.976Z,0
2018-08-13T01:32:21.225Z,0
2018-08-13T01:33:20.696Z,0
2018-08-13T01:34:20.938Z,0
2018-08-13T01:35:20.939Z,0
2018-08-13T01:36:20.927Z,0
2018-08-13T01:37:21.175Z,0
2018-08-13T01:38:20.909Z,0
2018-08-13T01:39:21.154Z,0
2018-08-13T01:40:20.878Z,0
2018-08-13T01:41:21.134Z,0
2018-08-13T01:42:21.121Z,0
2018-08-13T01:43:20.585Z,0
2018-08-13T01:44:20.850Z,0
2018-08-13T01:45:21.356Z,0
2018-08-13T01:46:20.824Z,0
2018-08-13T01:47:20.806Z,0
2018-08-13T01:48:20.790Z,0
2018-08-13T01:49:20.523Z,0
2018-08-13T01:50:20.777Z,0
2018-08-13T01:51:20.765Z,0
2018-08-13T01:52:20.760Z,0
2018-08-13T01:53:21.017Z,0
2018-08-13T01:54:20.474Z,0
2018-08-13T01:55:20.997Z,0
2018-08-13T01:56:21.246Z,0
2018-08-13T01:57:21.227Z,0
2018-08-13T01:58:20.952Z,0
2018-08-13T01:59:21.208Z,0
2018-08-13T02:00:20.932Z,0
2018-08-13T02:01:21.430Z,0
2018-08-13T02:02:20.911Z,0
2018-08-13T02:03:20.909Z,0
2018-08-13T02:04:20.899Z,0
2018-08-13T02:05:20.884Z,0
2018-08-13T02:06:20.613Z,0
2018-08-13T02:07:21.123Z,0
2018-08-13T02:08:20.852Z,0
2018-08-13T02:09:20.577Z,0
2018-08-13T02:10:20.831Z,0
2018-08-13T02:11:20.559Z,0
2018-08-13T02:12:21.073Z,0
2018-08-13T02:13:20.272Z,0
2018-08-13T02:14:20.796Z,0
2018-08-13T02:15:20.780Z,0
2018-08-13T02:16:20.770Z,0
2018-08-13T02:17:20.762Z,0
2018-08-13T02:18:20.224Z,0
2018-08-13T02:19:21.002Z,0
2018-08-13T02:20:20.725Z,0
2018-08-13T02:21:20.727Z,0
2018-08-13T02:22:20.977Z,0
2018-08-13T02:23:20.429Z,0
2018-08-13T02:24:20.422Z,0
2018-08-13T02:25:20.682Z,0
2018-08-13T02:26:20.405Z,0
2018-08-13T02:27:20.390Z,0
2018-08-13T02:28:20.638Z,0
2018-08-13T02:29:20.368Z,0
2018-08-13T02:30:20.906Z,0
2018-08-13T02:31:20.623Z,0
2018-08-13T02:32:20.873Z,0
2018-08-13T02:33:20.340Z,0
2018-08-13T02:34:20.851Z,0
2018-08-13T02:35:20.578Z,0
2018-08-13T02:36:20.304Z,0
2018-08-13T02:37:20.298Z,0
2018-08-13T02:38:20.584Z,0
2018-08-13T02:39:20.692Z,0
2018-08-13T02:40:20.594Z,0
2018-08-13T02:41:20.780Z,0
2018-08-13T02:42:19.979Z,0
2018-08-13T02:43:20.499Z,0
2018-08-13T02:44:20.748Z,0
2018-08-13T02:45:20.732Z,0
2018-08-13T02:46:20.464Z,0
2018-08-13T02:47:20.176Z,0
2018-08-13T02:48:20.187Z,0
2018-08-13T02:49:20.430Z,0
2018-08-13T02:50:20.423Z,0
2018-08-13T02:51:20.669Z,0
2018-08-13T02:52:20.410Z,0
2018-08-13T02:53:19.873Z,0
2018-08-13T02:54:20.376Z,0
2018-08-13T02:55:20.363Z,0
2018-08-13T02:56:20.624Z,0
2018-08-13T02:57:20.339Z,0
2018-08-13T02:58:21.052Z,0
2018-08-13T02:59:20.324Z,0
2018-08-13T03:00:20.051Z,0
2018-08-13T03:01:19.767Z,0
2018-08-13T03:02:20.033Z,0
2018-08-13T03:03:20.016Z,0
2018-08-13T03:04:20.280Z,0
2018-08-13T03:05:19.997Z,0
2018-08-13T03:06:20.245Z,0
2018-08-13T03:07:20.251Z,0
2018-08-13T03:08:20.229Z,0
2018-08-13T03:09:20.233Z,0
2018-08-13T03:10:20.208Z,0
2018-08-13T03:11:20.200Z,0
2018-08-13T03:12:20.448Z,0
2018-08-13T03:13:20.170Z,0
2018-08-13T03:14:20.172Z,0
2018-08-13T03:15:19.923Z,0
2018-08-13T03:16:20.145Z,0
2018-08-13T03:17:20.428Z,0
2018-08-13T03:18:20.120Z,0
2018-08-13T03:19:19.583Z,0
2018-08-13T03:20:19.571Z,0
2018-08-13T03:21:20.356Z,0
2018-08-13T03:22:20.083Z,0
2018-08-13T03:23:20.067Z,0
2018-08-13T03:24:19.801Z,0
2018-08-13T03:25:20.058Z,0
2018-08-13T03:26:19.507Z,0
2018-08-13T03:27:20.291Z,0
2018-08-13T03:28:20.012Z,0
2018-08-13T03:29:20.005Z,0
2018-08-13T03:30:20.332Z,0
2018-08-13T03:31:20.041Z,0
2018-08-13T03:32:20.241Z,0
2018-08-13T03:33:20.000Z,0
2018-08-13T03:34:19.964Z,0
2018-08-13T03:35:19.678Z,0
2018-08-13T03:36:19.673Z,0
2018-08-13T03:37:19.662Z,0
2018-08-13T03:38:19.387Z,0
2018-08-13T03:39:19.639Z,0
2018-08-13T03:40:19.889Z,0
2018-08-13T03:41:20.137Z,0
2018-08-13T03:42:19.611Z,0
2018-08-13T03:43:19.859Z,0
2018-08-13T03:44:19.852Z,4
2018-08-13T03:45:19.574Z,4
2018-08-13T03:46:19.617Z,0
2018-08-13T03:47:19.555Z,4
2018-08-13T03:48:19.812Z,4
2018-08-13T03:49:19.529Z,4
2018-08-13T03:50:19.794Z,8
2018-08-13T03:51:19.507Z,4
2018-08-13T03:52:19.756Z,4
2018-08-13T03:53:19.485Z,12
2018-08-13T03:54:20.030Z,12
2018-08-13T03:55:19.737Z,16
2018-08-13T03:56:19.192Z,16
2018-08-13T03:57:19.710Z,20
2018-08-13T03:58:19.709Z,24
2018-08-13T03:59:19.422Z,32
2018-08-13T04:00:19.412Z,40
2018-08-13T04:01:19.938Z,44
2018-08-13T04:02:19.920Z,56
2018-08-13T04:03:19.650Z,60
2018-08-13T04:04:19.652Z,68
2018-08-13T04:05:19.360Z,72
2018-08-13T04:06:19.622Z,68
2018-08-13T04:07:19.604Z,72
2018-08-13T04:08:19.861Z,76
2018-08-13T04:09:19.329Z,80
2018-08-13T04:10:19.053Z,84
2018-08-13T04:11:19.561Z,84
2018-08-13T04:12:19.597Z,92
2018-08-13T04:13:19.289Z,92
2018-08-13T04:14:19.539Z,104
2018-08-13T04:15:19.537Z,108
2018-08-13T04:16:19.520Z,120
2018-08-13T04:17:19.503Z,132
2018-08-13T04:18:19.226Z,152
2018-08-13T04:19:19.485Z,172
2018-08-13T04:20:19.748Z,188
2018-08-13T04:21:19.195Z,208
2018-08-13T04:22:19.453Z,228
2018-08-13T04:23:19.440Z,248
2018-08-13T04:24:19.423Z,276
2018-08-13T04:25:19.414Z,312
2018-08-13T04:26:19.155Z,364
2018-08-13T04:27:19.668Z,412
2018-08-13T04:28:19.646Z,436
2018-08-13T04:29:19.388Z,452
2018-08-13T04:30:19.363Z,468
2018-08-13T04:31:19.629Z,504
2018-08-13T04:32:19.610Z,504
2018-08-13T04:33:19.599Z,480
2018-08-13T04:34:19.324Z,452
2018-08-13T04:35:19.365Z,448
2018-08-13T04:36:19.040Z,440
2018-08-13T04:37:19.285Z,412
2018-08-13T04:38:19.559Z,408
2018-08-13T04:39:19.211Z,408
2018-08-13T04:40:19.002Z,440
2018-08-13T04:41:18.984Z,468
2018-08-13T04:42:19.244Z,472
2018-08-13T04:43:18.700Z,484
2018-08-13T04:44:19.232Z,484
2018-08-13T04:45:19.214Z,444
2018-08-13T04:46:19.195Z,408
2018-08-13T04:47:18.662Z,388
2018-08-13T04:48:19.174Z,384
2018-08-13T04:49:18.642Z,400
2018-08-13T04:50:19.166Z,420
2018-08-13T04:51:19.408Z,440
2018-08-13T04:52:19.899Z,460
2018-08-13T04:53:18.866Z,492
2018-08-13T04:54:18.590Z,516
2018-08-13T04:55:19.107Z,524
2018-08-13T04:56:18.828Z,528
2018-08-13T04:57:19.083Z,528
2018-08-13T04:58:18.818Z,528
2018-08-13T04:59:18.800Z,512
2018-08-13T05:00:19.320Z,488
2018-08-13T05:01:19.314Z,496
2018-08-13T05:02:18.779Z,504
2018-08-13T05:03:19.284Z,508
2018-08-13T05:04:19.009Z,492
2018-08-13T05:05:19.015Z,472
2018-08-13T05:06:18.996Z,444
2018-08-13T05:07:19.441Z,424
2018-08-13T05:08:18.969Z,444
2018-08-13T05:09:19.224Z,488
2018-08-13T05:10:18.693Z,516
2018-08-13T05:11:19.204Z,524
2018-08-13T05:12:18.930Z,500
2018-08-13T05:13:18.920Z,508
2018-08-13T05:14:18.650Z,500
2018-08-13T05:15:18.894Z,480
2018-08-13T05:16:18.625Z,488
2018-08-13T05:17:18.875Z,512
2018-08-13T05:18:18.872Z,532
2018-08-13T05:19:18.590Z,568
2018-08-13T05:20:19.116Z,624
2018-08-13T05:21:18.643Z,672
2018-08-13T05:22:18.564Z,684
2018-08-13T05:23:18.822Z,692
2018-08-13T05:24:18.539Z,684
2018-08-13T05:25:19.069Z,700
2018-08-13T05:26:18.514Z,720
2018-08-13T05:27:18.777Z,780
2018-08-13T05:28:18.759Z,820
2018-08-13T05:29:19.027Z,812
2018-08-13T05:30:18.516Z,796
2018-08-13T05:31:19.002Z,788
2018-08-13T05:32:18.996Z,796
2018-08-13T05:33:18.456Z,812
2018-08-13T05:34:18.177Z,836
2018-08-13T05:35:18.430Z,876
2018-08-13T05:36:18.156Z,884
2018-08-13T05:37:18.679Z,900
2018-08-13T05:38:18.858Z,952
2018-08-13T05:39:18.422Z,1028
2018-08-13T05:40:18.114Z,1132
2018-08-13T05:41:18.636Z,1224
2018-08-13T05:42:18.626Z,1296
2018-08-13T05:43:18.351Z,1372
2018-08-13T05:44:18.597Z,1460
2018-08-13T05:45:18.324Z,1552
2018-08-13T05:46:18.579Z,1632
2018-08-13T05:47:18.573Z,1668
2018-08-13T05:48:18.825Z,1700
2018-08-13T05:49:18.816Z,1740
2018-08-13T05:50:18.276Z,1756
2018-08-13T05:51:18.279Z,1780
2018-08-13T05:52:18.523Z,1816
2018-08-13T05:53:18.782Z,1876
2018-08-13T05:54:18.768Z,1932
2018-08-13T05:55:18.491Z,2000
2018-08-13T05:56:18.737Z,2104
2018-08-13T05:57:17.945Z,2264
2018-08-13T05:58:18.221Z,2460
2018-08-13T05:59:18.456Z,2648
2018-08-13T06:00:18.437Z,2784
2018-08-13T06:01:18.436Z,2884
2018-08-13T06:02:18.417Z,2924
2018-08-13T06:03:19.016Z,2960
2018-08-13T06:04:18.136Z,2960
2018-08-13T06:05:18.393Z,2940
2018-08-13T06:06:18.116Z,2940
2018-08-13T06:07:18.635Z,2932
2018-08-13T06:08:18.107Z,2948
2018-08-13T06:09:18.105Z,3020
2018-08-13T06:10:18.079Z,3072
2018-08-13T06:11:18.898Z,3064
2018-08-13T06:12:18.316Z,2956
2018-08-13T06:13:18.580Z,2784
2018-08-13T06:14:18.300Z,2636
2018-08-13T06:15:18.555Z,2524
2018-08-13T06:16:18.022Z,2440
2018-08-13T06:17:18.008Z,2552
2018-08-13T06:18:19.080Z,2684
2018-08-13T06:19:18.524Z,2652
2018-08-13T06:20:18.514Z,2656
2018-08-13T06:21:17.973Z,2660
2018-08-13T06:22:18.266Z,2596
2018-08-13T06:23:17.683Z,2504
2018-08-13T06:24:18.814Z,2356
2018-08-13T06:25:18.475Z,2124
2018-08-13T06:26:18.451Z,2088
2018-08-13T06:27:18.438Z,2256
2018-08-13T06:28:18.441Z,2428
2018-08-13T06:29:18.155Z,2444
2018-08-13T06:30:18.066Z,2300
2018-08-13T06:31:17.876Z,2060
2018-08-13T06:32:17.861Z,1928
2018-08-13T06:33:18.119Z,1860
2018-08-13T06:34:18.104Z,1864
2018-08-13T06:35:17.842Z,1900
2018-08-13T06:36:18.124Z,1900
2018-08-13T06:37:18.008Z,1900
2018-08-13T06:38:18.331Z,1816
2018-08-13T06:39:18.268Z,1616
2018-08-13T06:40:17.788Z,1496
2018-08-13T06:41:18.361Z,1516
2018-08-13T06:42:18.028Z,1568
2018-08-13T06:43:17.753Z,1580
2018-08-13T06:44:18.336Z,1564
2018-08-13T06:45:18.261Z,1488
2018-08-13T06:46:17.989Z,1472
2018-08-13T06:47:18.122Z,1560
2018-08-13T06:48:17.962Z,1752
2018-08-13T06:49:17.690Z,2012
2018-08-13T06:50:17.684Z,2192
2018-08-13T06:51:17.943Z,2188
2018-08-13T06:52:18.197Z,1948
2018-08-13T06:53:17.927Z,1644
2018-08-13T06:54:17.638Z,1480
2018-08-13T06:55:17.903Z,1416
2018-08-13T06:56:17.626Z,1492
2018-08-13T06:57:17.879Z,1432
2018-08-13T06:58:17.918Z,1456
2018-08-13T06:59:17.864Z,1588
2018-08-13T07:00:17.326Z,1624
2018-08-13T07:01:17.583Z,1560
2018-08-13T07:02:17.302Z,1532
2018-08-13T07:03:17.850Z,1448
2018-08-13T07:04:18.089Z,1380
2018-08-13T07:05:17.540Z,1360
2018-08-13T07:06:17.666Z,1432
2018-08-13T07:07:17.520Z,1484
2018-08-13T07:08:17.507Z,1492
2018-08-13T07:09:17.761Z,1584
2018-08-13T07:10:17.741Z,1744
2018-08-13T07:11:18.029Z,1860
2018-08-13T07:12:17.999Z,1940
2018-08-13T07:13:17.712Z,2064
2018-08-13T07:14:17.451Z,2120
2018-08-13T07:15:17.438Z,2256
2018-08-13T07:16:17.421Z,2412
2018-08-13T07:17:17.670Z,2464
2018-08-13T07:18:17.931Z,2508
2018-08-13T07:19:17.655Z,2536
2018-08-13T07:20:17.472Z,2640
2018-08-13T07:21:17.401Z,2832
2018-08-13T07:22:17.912Z,3036
2018-08-13T07:23:17.350Z,3232
2018-08-13T07:24:17.605Z,3476
2018-08-13T07:25:17.332Z,3752
2018-08-13T07:26:17.322Z,4144
2018-08-13T07:27:17.307Z,4596
2018-08-13T07:28:17.694Z,5028
2018-08-13T07:29:17.017Z,5468
2018-08-13T07:30:17.544Z,5852
2018-08-13T07:31:17.795Z,6232
2018-08-13T07:32:17.528Z,6520
2018-08-13T07:33:17.549Z,6756
2018-08-13T07:34:17.235Z,6804
2018-08-13T07:35:17.225Z,6740
2018-08-13T07:36:17.214Z,6384
2018-08-13T07:37:17.211Z,6292
2018-08-13T07:38:17.489Z,6416
2018-08-13T07:39:17.372Z,6792
2018-08-13T07:40:17.482Z,7084
2018-08-13T07:41:17.167Z,6804
2018-08-13T07:42:17.422Z,6752
2018-08-13T07:43:17.684Z,6572
2018-08-13T07:44:17.663Z,6396
2018-08-13T07:45:17.404Z,5680
2018-08-13T07:46:17.654Z,5416
2018-08-13T07:47:16.862Z,5544
2018-08-13T07:48:17.102Z,5616
2018-08-13T07:49:17.094Z,5908
2018-08-13T07:50:17.615Z,6528
2018-08-13T07:51:17.089Z,7164
2018-08-13T07:52:17.335Z,7836
2018-08-13T07:53:17.354Z,8332
2018-08-13T07:54:17.309Z,8596
2018-08-13T07:55:17.302Z,8092
2018-08-13T07:56:17.336Z,7484
2018-08-13T07:57:17.018Z,6900
2018-08-13T07:58:17.013Z,6656
2018-08-13T07:59:16.737Z,7204
2018-08-13T08:00:17.254Z,7660
2018-08-13T08:01:17.254Z,7196
2018-08-13T08:02:17.243Z,7016
2018-08-13T08:03:17.227Z,7168
2018-08-13T08:04:17.477Z,7464
2018-08-13T08:05:17.213Z,7220
2018-08-13T08:06:17.199Z,6088
2018-08-13T08:07:16.937Z,4880
2018-08-13T08:08:17.192Z,4016
2018-08-13T08:09:17.518Z,3796
2018-08-13T08:10:17.168Z,3984
2018-08-13T08:11:17.152Z,4676
2018-08-13T08:12:17.151Z,5188
2018-08-13T08:13:17.142Z,5736
2018-08-13T08:14:16.601Z,5832
2018-08-13T08:15:17.387Z,5476
2018-08-13T08:16:17.110Z,5008
2018-08-13T08:17:16.842Z,4488
2018-08-13T08:18:17.104Z,4116
2018-08-13T08:19:17.352Z,3632
2018-08-13T08:20:16.809Z,3120
2018-08-13T08:21:17.212Z,2564
2018-08-13T08:22:16.794Z,2096
2018-08-13T08:23:17.322Z,1780
2018-08-13T08:24:17.084Z,1664
2018-08-13T08:25:16.506Z,1796
2018-08-13T08:26:17.284Z,2060
2018-08-13T08:27:16.754Z,2392
2018-08-13T08:28:16.757Z,2784
2018-08-13T08:29:17.439Z,3212
2018-08-13T08:30:16.729Z,3616
2018-08-13T08:31:16.717Z,4152
2018-08-13T08:32:16.979Z,4828
2018-08-13T08:33:17.230Z,5704
2018-08-13T08:34:16.958Z,6748
2018-08-13T08:35:16.948Z,7696
2018-08-13T08:36:16.671Z,8736
2018-08-13T08:37:17.193Z,9188
2018-08-13T08:38:16.911Z,9108
2018-08-13T08:39:16.710Z,8736
2018-08-13T08:40:16.908Z,8200
2018-08-13T08:41:16.881Z,7976
2018-08-13T08:42:16.882Z,8240
2018-08-13T08:43:16.866Z,8780
2018-08-13T08:44:16.864Z,9176
2018-08-13T08:45:16.854Z,9388
2018-08-13T08:46:16.578Z,9248
2018-08-13T08:47:16.309Z,9024
2018-08-13T08:48:16.558Z,8464
2018-08-13T08:49:16.548Z,8000
2018-08-13T08:50:17.069Z,7712
2018-08-13T08:51:16.531Z,7536
2018-08-13T08:52:16.532Z,7400
2018-08-13T08:53:16.787Z,7176
2018-08-13T08:54:16.767Z,6884
2018-08-13T08:55:16.495Z,6772
2018-08-13T08:56:16.756Z,6816
2018-08-13T08:57:16.214Z,6988
2018-08-13T08:58:16.473Z,7224
2018-08-13T08:59:16.200Z,7328
2018-08-13T09:00:16.459Z,7320
2018-08-13T09:01:16.711Z,7232
2018-08-13T09:02:16.708Z,7184
2018-08-13T09:03:16.959Z,7220
2018-08-13T09:04:16.418Z,7152
2018-08-13T09:05:16.676Z,6968
2018-08-13T09:06:16.417Z,6988
2018-08-13T09:07:16.389Z,7040
2018-08-13T09:08:16.390Z,7092
2018-08-13T09:09:16.641Z,6700
2018-08-13T09:10:16.925Z,6368
2018-08-13T09:11:16.623Z,6276
2018-08-13T09:12:16.623Z,6468
2018-08-13T09:13:16.605Z,6592
2018-08-13T09:14:16.867Z,6136
2018-08-13T09:15:16.593Z,5436
2018-08-13T09:16:16.596Z,5320
2018-08-13T09:17:16.586Z,6056
2018-08-13T09:18:16.843Z,7320
2018-08-13T09:19:16.459Z,7928
2018-08-13T09:20:16.549Z,7956
2018-08-13T09:21:16.540Z,7256
2018-08-13T09:22:16.792Z,6380
2018-08-13T09:23:16.786Z,5676
2018-08-13T09:24:16.515Z,5136
2018-08-13T09:25:16.056Z,4688
2018-08-13T09:26:16.544Z,4204
2018-08-13T09:27:16.503Z,3912
2018-08-13T09:28:16.484Z,3480
2018-08-13T09:29:16.739Z,3192
2018-08-13T09:30:16.218Z,3120
2018-08-13T09:31:16.456Z,3316
2018-08-13T09:32:16.185Z,3632
2018-08-13T09:33:16.441Z,4020
2018-08-13T09:34:16.164Z,4524
2018-08-13T09:35:16.160Z,5324
2018-08-13T09:36:16.688Z,6064
2018-08-13T09:37:16.665Z,6624
2018-08-13T09:38:16.655Z,7116
2018-08-13T09:39:15.852Z,7332
2018-08-13T09:40:16.137Z,7532
2018-08-13T09:41:15.831Z,7888
2018-08-13T09:42:16.363Z,7852
2018-08-13T09:43:16.089Z,7876
2018-08-13T09:44:16.609Z,8184
2018-08-13T09:45:16.062Z,8700
2018-08-13T09:46:16.315Z,8784
2018-08-13T09:47:16.573Z,9004
2018-08-13T09:48:16.223Z,9788
2018-08-13T09:49:16.298Z,10664
2018-08-13T09:50:16.026Z,11480
2018-08-13T09:51:16.314Z,11612
2018-08-13T09:52:16.274Z,11504
2018-08-13T09:53:15.734Z,11648
2018-08-13T09:54:16.520Z,12032
2018-08-13T09:55:15.713Z,11100
2018-08-13T09:56:16.236Z,9628
2018-08-13T09:57:16.488Z,9136
2018-08-13T09:58:15.952Z,10160
2018-08-13T09:59:15.680Z,12264
2018-08-13T10:00:16.759Z,10812
2018-08-13T10:01:15.935Z,9152
2018-08-13T10:02:16.447Z,9792
2018-08-13T10:03:16.444Z,11196
2018-08-13T10:04:16.184Z,12076
2018-08-13T10:05:16.207Z,14316
2018-08-13T10:06:16.148Z,11552
2018-08-13T10:07:15.884Z,10288
2018-08-13T10:08:16.145Z,9672
2018-08-13T10:09:16.636Z,9248
2018-08-13T10:10:15.862Z,12164
2018-08-13T10:11:15.587Z,10096
2018-08-13T10:12:15.842Z,10580
2018-08-13T10:13:15.565Z,21344
2018-08-13T10:14:16.085Z,26304
2018-08-13T10:15:16.082Z,17632
2018-08-13T10:16:16.095Z,15068
2018-08-13T10:17:16.074Z,16160
2018-08-13T10:18:16.329Z,17088
2018-08-13T10:19:16.321Z,17184
2018-08-13T10:20:15.778Z,18656
2018-08-13T10:21:15.775Z,19584
2018-08-13T10:22:15.769Z,20320
2018-08-13T10:23:16.036Z,20160
2018-08-13T10:24:16.016Z,19904
2018-08-13T10:25:15.755Z,20224
2018-08-13T10:26:16.277Z,20704
2018-08-13T10:27:16.005Z,20896
2018-08-13T10:28:15.729Z,23520
2018-08-13T10:29:15.991Z,21856
2018-08-13T10:30:15.462Z,32288
2018-08-13T10:31:16.262Z,20224
2018-08-13T10:32:15.977Z,17920
2018-08-13T10:33:15.961Z,20928
2018-08-13T10:34:16.227Z,15172
2018-08-13T10:35:15.695Z,13720
2018-08-13T10:36:15.678Z,13832
2018-08-13T10:37:16.268Z,13300
2018-08-13T10:38:15.679Z,13504
2018-08-13T10:39:15.744Z,13208
2018-08-13T10:40:15.931Z,13252
2018-08-13T10:41:15.935Z,13224
2018-08-13T10:42:15.391Z,12968
2018-08-13T10:43:15.903Z,13484
2018-08-13T10:44:15.651Z,13500
2018-08-13T10:45:15.640Z,13220
2018-08-13T10:46:15.891Z,24384
2018-08-13T10:47:15.884Z,22816
2018-08-13T10:48:15.608Z,63456
2018-08-13T10:49:15.868Z,35040
2018-08-13T10:50:15.603Z,71584
2018-08-13T10:51:15.861Z,116256
2018-08-13T10:52:15.855Z,72928
2018-08-13T10:53:15.588Z,41728
2018-08-13T10:54:15.585Z,37984
2018-08-13T10:55:16.116Z,20832
2018-08-13T10:56:16.417Z,16272
2018-08-13T10:57:15.828Z,18112
2018-08-13T10:58:16.093Z,16672
2018-08-13T10:59:16.090Z,17664
2018-08-13T11:00:15.821Z,19008
2018-08-13T11:01:16.063Z,17056
2018-08-13T11:02:15.837Z,17280
2018-08-13T11:03:16.139Z,17216
2018-08-13T11:04:15.809Z,96224
2018-08-13T11:05:15.807Z,96704
2018-08-13T11:06:16.077Z,96320
2018-08-13T11:07:15.544Z,84544
2018-08-13T11:08:16.051Z,93600
2018-08-13T11:09:15.781Z,95552
2018-08-13T11:10:15.901Z,23968
2018-08-13T11:11:15.777Z,26112
2018-08-13T11:12:15.785Z,65184
2018-08-13T11:13:15.791Z,36384
2018-08-13T11:14:15.782Z,39296
2018-08-13T11:15:16.042Z,28160
2018-08-13T11:16:16.038Z,19392
2018-08-13T11:17:15.498Z,16992
2018-08-13T11:18:16.036Z,14748
2018-08-13T11:19:15.762Z,17088
2018-08-13T11:20:15.755Z,17376
2018-08-13T11:21:15.493Z,18912
2018-08-13T11:22:15.489Z,31136
2018-08-13T11:23:15.495Z,22560
2018-08-13T11:24:15.754Z,76704
2018-08-13T11:25:15.806Z,48448
2018-08-13T11:26:15.793Z,29664
2018-08-13T11:27:15.736Z,49088
2018-08-13T11:28:15.737Z,19744
2018-08-13T11:29:16.011Z,11988
2018-08-13T11:30:16.019Z,12764
2018-08-13T11:31:15.673Z,20032
2018-08-13T11:32:15.666Z,16768
2018-08-13T11:33:15.732Z,14708
2018-08-13T11:34:15.726Z,30944
2018-08-13T11:35:15.508Z,21024
2018-08-13T11:36:15.189Z,18400
2018-08-13T11:37:15.445Z,25024
2018-08-13T11:38:15.714Z,15304
2018-08-13T11:39:15.445Z,28608
2018-08-13T11:40:15.706Z,17088
2018-08-13T11:41:15.450Z,17600
2018-08-13T11:42:15.973Z,9892
2018-08-13T11:43:15.691Z,9304
2018-08-13T11:44:15.689Z,10652
2018-08-13T11:45:15.698Z,10528
2018-08-13T11:46:15.213Z,7264
2018-08-13T11:47:15.949Z,5456
2018-08-13T11:48:15.409Z,6120
2018-08-13T11:49:15.468Z,8232
2018-08-13T11:50:15.666Z,12396
2018-08-13T11:51:15.919Z,9312
2018-08-13T11:52:15.919Z,6544
2018-08-13T11:53:15.394Z,6496
2018-08-13T11:54:15.908Z,5220
2018-08-13T11:55:15.375Z,5580
2018-08-13T11:56:15.428Z,5948
2018-08-13T11:57:15.900Z,4936
2018-08-13T11:58:15.366Z,3624
2018-08-13T11:59:15.352Z,3732
2018-08-13T12:00:15.626Z,4504
2018-08-13T12:01:16.032Z,4716
2018-08-13T12:02:15.469Z,4512
2018-08-13T12:03:15.342Z,4320
2018-08-13T12:04:15.592Z,4336
2018-08-13T12:05:15.582Z,4180
2018-08-13T12:06:15.852Z,4260
2018-08-13T12:07:15.833Z,4612
2018-08-13T12:08:15.613Z,5488
2018-08-13T12:09:15.296Z,6324
2018-08-13T12:10:15.549Z,7368
2018-08-13T12:11:15.815Z,8568
2018-08-13T12:12:15.274Z,9556
2018-08-13T12:13:15.801Z,10976
2018-08-13T12:14:15.404Z,12504
2018-08-13T12:15:15.257Z,16992
2018-08-13T12:16:15.512Z,20832
2018-08-13T12:17:15.523Z,18912
2018-08-13T12:18:15.504Z,17600
2018-08-13T12:19:15.232Z,20896
2018-08-13T12:20:15.224Z,27104
2018-08-13T12:21:15.482Z,20960
2018-08-13T12:22:15.731Z,17088
2018-08-13T12:23:15.732Z,15468
2018-08-13T12:24:15.475Z,15580
2018-08-13T12:25:15.733Z,15164
2018-08-13T12:26:15.209Z,15428
2018-08-13T12:27:15.444Z,15888
2018-08-13T12:28:15.713Z,16832
2018-08-13T12:29:15.429Z,17088
2018-08-13T12:30:15.427Z,16736
2018-08-13T12:31:15.687Z,17632
2018-08-13T12:32:14.890Z,18304
2018-08-13T12:33:15.150Z,19648
2018-08-13T12:34:15.402Z,23200
2018-08-13T12:35:14.876Z,24224
2018-08-13T12:36:15.126Z,23232
2018-08-13T12:37:15.388Z,22688
2018-08-13T12:38:14.848Z,21248
2018-08-13T12:39:15.634Z,21856
2018-08-13T12:40:15.832Z,17792
2018-08-13T12:41:15.205Z,15868
2018-08-13T12:42:15.108Z,13996
2018-08-13T12:43:15.363Z,12584
2018-08-13T12:44:15.088Z,11744
2018-08-13T12:45:15.344Z,11344
2018-08-13T12:46:15.335Z,12272
2018-08-13T12:47:14.834Z,13944
2018-08-13T12:48:15.347Z,15876
2018-08-13T12:49:15.068Z,19808
2018-08-13T12:50:15.327Z,24384
2018-08-13T12:51:15.212Z,30080
2018-08-13T12:52:15.575Z,88064
2018-08-13T12:53:15.297Z,37856
2018-08-13T12:54:15.038Z,56448
2018-08-13T12:55:15.021Z,32448
2018-08-13T12:56:15.553Z,32096
2018-08-13T12:57:15.116Z,31232
2018-08-13T12:58:15.283Z,21408
2018-08-13T12:59:15.291Z,21088
2018-08-13T13:00:15.046Z,23808
2018-08-13T13:01:15.257Z,20480
2018-08-13T13:02:15.250Z,14404
2018-08-13T13:03:15.250Z,12476
2018-08-13T13:04:15.522Z,10884
2018-08-13T13:05:15.241Z,9700
2018-08-13T13:06:15.500Z,8708
2018-08-13T13:07:14.971Z,8128
2018-08-13T13:08:15.236Z,7700
2018-08-13T13:09:15.489Z,7140
2018-08-13T13:10:14.956Z,6564
2018-08-13T13:11:15.222Z,6124
2018-08-13T13:12:15.489Z,5592
2018-08-13T13:13:15.219Z,5084
2018-08-13T13:14:15.198Z,4640
2018-08-13T13:15:15.195Z,4252
2018-08-13T13:16:15.184Z,3872
2018-08-13T13:17:15.186Z,3488
2018-08-13T13:18:15.177Z,3124
2018-08-13T13:19:15.444Z,2864
2018-08-13T13:20:15.162Z,2680
2018-08-13T13:21:15.181Z,2516
2018-08-13T13:22:14.893Z,2368
2018-08-13T13:23:15.144Z,2236
2018-08-13T13:24:15.147Z,2124
2018-08-13T13:25:15.404Z,2008
2018-08-13T13:26:15.401Z,1896
2018-08-13T13:27:14.864Z,1788
2018-08-13T13:28:14.846Z,1668
2018-08-13T13:29:14.841Z,1560
2018-08-13T13:30:15.092Z,1488
2018-08-13T13:31:14.565Z,1432
2018-08-13T13:32:15.089Z,1376
2018-08-13T13:33:15.077Z,1368
2018-08-13T13:34:15.072Z,1408
2018-08-13T13:35:15.063Z,1476
2018-08-13T13:36:14.794Z,1560
2018-08-13T13:37:14.780Z,1628
2018-08-13T13:38:14.514Z,1760
2018-08-13T13:39:15.026Z,2072
2018-08-13T13:40:15.085Z,2496